Terminal Aerodrome Forecast
Issued by NWS

Home | Current Version | Previous Version | Text Only | Print | Product List | Glossary On
Versions: 1 2 3 4 5 6 7 8 9 10 11 12 13 14 15 16 17 18 19 20 21 22 23
151
FTUS41 KRLX 050549
TAFCKB
TAF
KCKB 050549Z 0506/0606 21006KT 6SM -RA OVC012
      TEMPO 0506/0508 5SM -DZ BR OVC010
     FM050800 22007KT P6SM OVC010
     FM051100 26009KT P6SM OVC010
      TEMPO 0511/0515 BKN015
     FM051500 28005KT P6SM OVC025
     FM052100 22004KT P6SM BKN025
     FM052200 VRB03KT P6SM BKN250=

USA.gov is the U.S. government's official web portal to all federal, state and local government web resources and services.